sensor_id;sensor_type;location;lat;lon;timestamp;temperature;humidity
44069;DHT22;29738;51.234;5.484;2022-07-23T00:00:11;16.70;99.90
44069;DHT22;29738;51.234;5.484;2022-07-23T00:02:37;16.70;99.90
44069;DHT22;29738;51.234;5.484;2022-07-23T00:05:03;16.70;99.90
44069;DHT22;29738;51.234;5.484;2022-07-23T00:07:29;16.60;99.90
44069;DHT22;29738;51.234;5.484;2022-07-23T00:09:55;16.70;99.90
44069;DHT22;29738;51.234;5.484;2022-07-23T00:12:21;16.70;99.90
44069;DHT22;29738;51.234;5.484;2022-07-23T00:14:47;16.70;99.90
44069;DHT22;29738;51.234;5.484;2022-07-23T00:17:13;16.70;99.90
44069;DHT22;29738;51.234;5.484;2022-07-23T00:19:38;16.70;99.90
44069;DHT22;29738;51.234;5.484;2022-07-23T00:22:04;16.60;99.90
44069;DHT22;29738;51.234;5.484;2022-07-23T00:24:30;16.70;99.90
44069;DHT22;29738;51.234;5.484;2022-07-23T00:26:56;16.70;99.90
44069;DHT22;29738;51.234;5.484;2022-07-23T00:29:21;16.80;99.90
44069;DHT22;29738;51.234;5.484;2022-07-23T00:31:47;16.70;99.90
44069;DHT22;29738;51.234;5.484;2022-07-23T00:34:13;16.80;99.90
44069;DHT22;29738;51.234;5.484;2022-07-23T00:36:39;16.90;99.90
44069;DHT22;29738;51.234;5.484;2022-07-23T00:39:05;16.90;99.90
44069;DHT22;29738;51.234;5.484;2022-07-23T00:41:30;17.10;99.90
44069;DHT22;29738;51.234;5.484;2022-07-23T00:44:22;17.10;99.90
44069;DHT22;29738;51.234;5.484;2022-07-23T00:46:51;17.00;99.90
44069;DHT22;29738;51.234;5.484;2022-07-23T00:49:24;16.90;99.90
44069;DHT22;29738;51.234;5.484;2022-07-23T00:51:50;16.80;99.90
44069;DHT22;29738;51.234;5.484;2022-07-23T00:54:17;16.80;99.90
44069;DHT22;29738;51.234;5.484;2022-07-23T00:56:44;16.80;99.90
44069;DHT22;29738;51.234;5.484;2022-07-23T00:59:10;16.60;99.90
44069;DHT22;29738;51.234;5.484;2022-07-23T01:01:36;16.30;99.90
44069;DHT22;29738;51.234;5.484;2022-07-23T01:04:03;16.30;99.90
44069;DHT22;29738;51.234;5.484;2022-07-23T01:06:29;16.30;99.90
44069;DHT22;29738;51.234;5.484;2022-07-23T01:08:56;16.30;99.90
44069;DHT22;29738;51.234;5.484;2022-07-23T01:11:23;16.40;99.90
44069;DHT22;29738;51.234;5.484;2022-07-23T01:13:50;16.30;99.90
44069;DHT22;29738;51.234;5.484;2022-07-23T01:16:15;16.40;99.90
44069;DHT22;29738;51.234;5.484;2022-07-23T01:18:41;16.40;99.90
44069;DHT22;29738;51.234;5.484;2022-07-23T01:21:09;16.40;99.90
44069;DHT22;29738;51.234;5.484;2022-07-23T01:23:38;16.30;99.90
44069;DHT22;29738;51.234;5.484;2022-07-23T01:26:04;16.10;99.90
44069;DHT22;29738;51.234;5.484;2022-07-23T01:28:30;16.20;99.90
44069;DHT22;29738;51.234;5.484;2022-07-23T01:30:56;16.10;99.90
44069;DHT22;29738;51.234;5.484;2022-07-23T01:33:21;16.10;99.90
44069;DHT22;29738;51.234;5.484;2022-07-23T01:35:48;16.10;99.90
44069;DHT22;29738;51.234;5.484;2022-07-23T01:38:13;15.90;99.90
44069;DHT22;29738;51.234;5.484;2022-07-23T01:40:39;15.80;99.90
44069;DHT22;29738;51.234;5.484;2022-07-23T01:43:05;15.80;99.90
44069;DHT22;29738;51.234;5.484;2022-07-23T01:45:31;15.70;99.90
44069;DHT22;29738;51.234;5.484;2022-07-23T01:47:57;15.30;99.90
44069;DHT22;29738;51.234;5.484;2022-07-23T01:50:22;15.20;99.90
44069;DHT22;29738;51.234;5.484;2022-07-23T01:52:48;15.10;99.90
44069;DHT22;29738;51.234;5.484;2022-07-23T01:55:14;15.20;99.90
44069;DHT22;29738;51.234;5.484;2022-07-23T01:57:40;15.10;99.90
44069;DHT22;29738;51.234;5.484;2022-07-23T02:00:06;15.20;99.90
44069;DHT22;29738;51.234;5.484;2022-07-23T02:02:32;15.30;99.90
44069;DHT22;29738;51.234;5.484;2022-07-23T02:04:58;15.30;99.90
44069;DHT22;29738;51.234;5.484;2022-07-23T02:07:23;15.40;99.90
44069;DHT22;29738;51.234;5.484;2022-07-23T02:09:49;15.40;99.90
44069;DHT22;29738;51.234;5.484;2022-07-23T02:12:15;15.20;99.90
44069;DHT22;29738;51.234;5.484;2022-07-23T02:14:41;15.20;99.90
44069;DHT22;29738;51.234;5.484;2022-07-23T02:17:06;15.10;99.90
44069;DHT22;29738;51.234;5.484;2022-07-23T02:19:32;15.10;99.90
44069;DHT22;29738;51.234;5.484;2022-07-23T02:21:58;15.20;99.90
44069;DHT22;29738;51.234;5.484;2022-07-23T02:24:24;15.40;99.90
44069;DHT22;29738;51.234;5.484;2022-07-23T02:26:50;15.50;99.90
44069;DHT22;29738;51.234;5.484;2022-07-23T02:29:15;15.50;99.90
44069;DHT22;29738;51.234;5.484;2022-07-23T02:31:41;15.60;99.90
44069;DHT22;29738;51.234;5.484;2022-07-23T02:34:07;15.50;99.90
44069;DHT22;29738;51.234;5.484;2022-07-23T02:36:33;15.40;99.90
44069;DHT22;29738;51.234;5.484;2022-07-23T02:38:59;15.50;99.90
44069;DHT22;29738;51.234;5.484;2022-07-23T02:41:24;15.50;99.90
44069;DHT22;29738;51.234;5.484;2022-07-23T02:43:50;15.50;99.90
44069;DHT22;29738;51.234;5.484;2022-07-23T02:46:16;15.40;99.90
44069;DHT22;29738;51.234;5.484;2022-07-23T02:48:42;15.40;99.90
44069;DHT22;29738;51.234;5.484;2022-07-23T02:51:08;15.30;99.90
44069;DHT22;29738;51.234;5.484;2022-07-23T02:53:33;15.20;99.90
44069;DHT22;29738;51.234;5.484;2022-07-23T02:55:59;15.00;99.90
44069;DHT22;29738;51.234;5.484;2022-07-23T02:58:25;14.90;99.90
44069;DHT22;29738;51.234;5.484;2022-07-23T03:00:52;14.90;99.90
44069;DHT22;29738;51.234;5.484;2022-07-23T03:03:18;14.90;99.90
44069;DHT22;29738;51.234;5.484;2022-07-23T03:05:44;14.90;99.90
44069;DHT22;29738;51.234;5.484;2022-07-23T03:08:10;14.80;99.90
44069;DHT22;29738;51.234;5.484;2022-07-23T03:10:36;14.70;99.90
44069;DHT22;29738;51.234;5.484;2022-07-23T03:13:01;14.70;99.90
44069;DHT22;29738;51.234;5.484;2022-07-23T03:15:27;14.90;99.90
44069;DHT22;29738;51.234;5.484;2022-07-23T03:17:53;15.10;99.90
44069;DHT22;29738;51.234;5.484;2022-07-23T03:20:19;15.20;99.90
44069;DHT22;29738;51.234;5.484;2022-07-23T03:22:45;15.40;99.90
44069;DHT22;29738;51.234;5.484;2022-07-23T03:25:10;15.40;99.90
44069;DHT22;29738;51.234;5.484;2022-07-23T03:27:36;15.20;99.90
44069;DHT22;29738;51.234;5.484;2022-07-23T03:30:03;15.20;99.90
44069;DHT22;29738;51.234;5.484;2022-07-23T03:32:28;15.00;99.90
44069;DHT22;29738;51.234;5.484;2022-07-23T03:34:54;14.90;99.90
44069;DHT22;29738;51.234;5.484;2022-07-23T03:37:21;14.70;99.90
44069;DHT22;29738;51.234;5.484;2022-07-23T03:39:46;14.50;99.90
44069;DHT22;29738;51.234;5.484;2022-07-23T03:42:12;14.50;99.90
44069;DHT22;29738;51.234;5.484;2022-07-23T03:44:38;14.40;99.90
44069;DHT22;29738;51.234;5.484;2022-07-23T03:47:05;14.30;99.90
44069;DHT22;29738;51.234;5.484;2022-07-23T03:49:31;14.40;99.90
44069;DHT22;29738;51.234;5.484;2022-07-23T03:51:57;14.60;99.90
44069;DHT22;29738;51.234;5.484;2022-07-23T03:54:23;14.70;99.90
44069;DHT22;29738;51.234;5.484;2022-07-23T03:56:49;14.90;99.90
44069;DHT22;29738;51.234;5.484;2022-07-23T03:59:15;15.00;99.90
44069;DHT22;29738;51.234;5.484;2022-07-23T04:01:41;15.00;99.90
44069;DHT22;29738;51.234;5.484;2022-07-23T04:04:07;15.10;99.90
44069;DHT22;29738;51.234;5.484;2022-07-23T04:06:34;15.10;99.90
44069;DHT22;29738;51.234;5.484;2022-07-23T04:09:00;15.00;99.90
44069;DHT22;29738;51.234;5.484;2022-07-23T04:11:25;14.90;99.90
44069;DHT22;29738;51.234;5.484;2022-07-23T04:13:51;15.00;99.90
44069;DHT22;29738;51.234;5.484;2022-07-23T04:16:17;15.00;99.90
44069;DHT22;29738;51.234;5.484;2022-07-23T04:18:43;15.30;99.90
44069;DHT22;29738;51.234;5.484;2022-07-23T04:21:09;15.30;99.90
44069;DHT22;29738;51.234;5.484;2022-07-23T04:23:34;15.30;99.90
44069;DHT22;29738;51.234;5.484;2022-07-23T04:26:00;15.40;99.90
44069;DHT22;29738;51.234;5.484;2022-07-23T04:28:26;15.60;99.90
44069;DHT22;29738;51.234;5.484;2022-07-23T04:30:52;15.80;99.90
44069;DHT22;29738;51.234;5.484;2022-07-23T04:33:18;15.90;99.90
44069;DHT22;29738;51.234;5.484;2022-07-23T04:35:44;16.20;99.90
44069;DHT22;29738;51.234;5.484;2022-07-23T04:38:10;16.60;99.90
44069;DHT22;29738;51.234;5.484;2022-07-23T04:40:36;16.90;99.90
44069;DHT22;29738;51.234;5.484;2022-07-23T04:43:02;17.30;99.90
44069;DHT22;29738;51.234;5.484;2022-07-23T04:45:27;17.40;99.90
44069;DHT22;29738;51.234;5.484;2022-07-23T04:47:53;17.50;99.90
44069;DHT22;29738;51.234;5.484;2022-07-23T04:50:19;17.70;99.90
44069;DHT22;29738;51.234;5.484;2022-07-23T04:52:47;17.80;99.90
44069;DHT22;29738;51.234;5.484;2022-07-23T04:55:14;17.90;99.90
44069;DHT22;29738;51.234;5.484;2022-07-23T04:57:40;18.10;99.90
44069;DHT22;29738;51.234;5.484;2022-07-23T05:00:07;18.10;99.90
44069;DHT22;29738;51.234;5.484;2022-07-23T05:02:33;18.30;99.90
44069;DHT22;29738;51.234;5.484;2022-07-23T05:04:58;18.10;99.90
44069;DHT22;29738;51.234;5.484;2022-07-23T05:07:24;18.20;99.90
44069;DHT22;29738;51.234;5.484;2022-07-23T05:09:50;18.20;99.90
44069;DHT22;29738;51.234;5.484;2022-07-23T05:12:16;18.20;99.90
44069;DHT22;29738;51.234;5.484;2022-07-23T05:14:42;18.30;99.90
44069;DHT22;29738;51.234;5.484;2022-07-23T05:17:08;18.30;99.90
44069;DHT22;29738;51.234;5.484;2022-07-23T05:19:34;17.70;99.90
44069;DHT22;29738;51.234;5.484;2022-07-23T05:22:00;17.10;99.90
44069;DHT22;29738;51.234;5.484;2022-07-23T05:24:26;16.70;99.90
44069;DHT22;29738;51.234;5.484;2022-07-23T05:26:52;16.80;99.90
44069;DHT22;29738;51.234;5.484;2022-07-23T05:29:17;16.90;99.90
44069;DHT22;29738;51.234;5.484;2022-07-23T05:31:43;17.00;99.90
44069;DHT22;29738;51.234;5.484;2022-07-23T05:34:09;16.90;99.90
44069;DHT22;29738;51.234;5.484;2022-07-23T05:36:35;16.90;99.90
44069;DHT22;29738;51.234;5.484;2022-07-23T05:39:01;16.50;99.90
44069;DHT22;29738;51.234;5.484;2022-07-23T05:41:27;16.60;99.90
44069;DHT22;29738;51.234;5.484;2022-07-23T05:43:53;16.90;99.90
44069;DHT22;29738;51.234;5.484;2022-07-23T05:46:19;16.70;99.90
44069;DHT22;29738;51.234;5.484;2022-07-23T05:48:45;16.60;99.90
44069;DHT22;29738;51.234;5.484;2022-07-23T05:51:19;16.40;99.90
44069;DHT22;29738;51.234;5.484;2022-07-23T05:53:45;16.40;99.90
44069;DHT22;29738;51.234;5.484;2022-07-23T05:56:11;16.20;99.90
44069;DHT22;29738;51.234;5.484;2022-07-23T05:58:37;16.30;99.90
44069;DHT22;29738;51.234;5.484;2022-07-23T06:01:02;16.20;99.90
44069;DHT22;29738;51.234;5.484;2022-07-23T06:03:28;16.20;99.90
44069;DHT22;29738;51.234;5.484;2022-07-23T06:05:54;16.20;99.90
44069;DHT22;29738;51.234;5.484;2022-07-23T06:08:20;16.10;99.90
44069;DHT22;29738;51.234;5.484;2022-07-23T06:10:45;16.20;99.90
44069;DHT22;29738;51.234;5.484;2022-07-23T06:13:11;16.40;99.90
44069;DHT22;29738;51.234;5.484;2022-07-23T06:15:37;16.30;99.90
44069;DHT22;29738;51.234;5.484;2022-07-23T06:18:03;16.50;99.90
44069;DHT22;29738;51.234;5.484;2022-07-23T06:20:29;16.70;99.90
44069;DHT22;29738;51.234;5.484;2022-07-23T06:22:55;16.70;99.90
44069;DHT22;29738;51.234;5.484;2022-07-23T06:25:20;16.70;99.90
44069;DHT22;29738;51.234;5.484;2022-07-23T06:27:47;16.70;99.90
44069;DHT22;29738;51.234;5.484;2022-07-23T06:30:13;17.00;99.90
44069;DHT22;29738;51.234;5.484;2022-07-23T06:32:41;17.10;99.90
44069;DHT22;29738;51.234;5.484;2022-07-23T06:35:07;17.30;99.90
44069;DHT22;29738;51.234;5.484;2022-07-23T06:37:33;17.40;99.90
44069;DHT22;29738;51.234;5.484;2022-07-23T06:39:59;17.40;99.90
44069;DHT22;29738;51.234;5.484;2022-07-23T06:42:25;17.50;99.90
44069;DHT22;29738;51.234;5.484;2022-07-23T06:44:50;17.80;99.90
44069;DHT22;29738;51.234;5.484;2022-07-23T06:47:16;17.90;99.90
44069;DHT22;29738;51.234;5.484;2022-07-23T06:49:42;18.10;99.90
44069;DHT22;29738;51.234;5.484;2022-07-23T06:52:08;18.10;99.90
44069;DHT22;29738;51.234;5.484;2022-07-23T06:54:34;18.20;99.90
44069;DHT22;29738;51.234;5.484;2022-07-23T06:57:00;18.20;99.90
44069;DHT22;29738;51.234;5.484;2022-07-23T06:59:25;17.90;99.90
44069;DHT22;29738;51.234;5.484;2022-07-23T07:01:51;17.90;99.90
44069;DHT22;29738;51.234;5.484;2022-07-23T07:04:17;17.70;99.90
44069;DHT22;29738;51.234;5.484;2022-07-23T07:06:43;17.70;99.90
44069;DHT22;29738;51.234;5.484;2022-07-23T07:09:09;17.70;99.90
44069;DHT22;29738;51.234;5.484;2022-07-23T07:11:34;17.90;99.90
44069;DHT22;29738;51.234;5.484;2022-07-23T07:14:00;17.80;99.90
44069;DHT22;29738;51.234;5.484;2022-07-23T07:16:26;18.10;99.90
44069;DHT22;29738;51.234;5.484;2022-07-23T07:18:52;18.30;99.90
44069;DHT22;29738;51.234;5.484;2022-07-23T07:21:17;18.40;99.90
44069;DHT22;29738;51.234;5.484;2022-07-23T07:23:43;18.70;99.90
44069;DHT22;29738;51.234;5.484;2022-07-23T07:26:09;18.60;99.90
44069;DHT22;29738;51.234;5.484;2022-07-23T07:28:35;18.90;99.90
44069;DHT22;29738;51.234;5.484;2022-07-23T07:31:01;19.10;99.90
44069;DHT22;29738;51.234;5.484;2022-07-23T07:33:26;19.00;99.90
44069;DHT22;29738;51.234;5.484;2022-07-23T07:35:52;19.00;99.90
44069;DHT22;29738;51.234;5.484;2022-07-23T07:38:18;19.20;99.90
44069;DHT22;29738;51.234;5.484;2022-07-23T07:40:44;19.30;99.90
44069;DHT22;29738;51.234;5.484;2022-07-23T07:43:10;19.40;99.90
44069;DHT22;29738;51.234;5.484;2022-07-23T07:45:36;19.30;99.90
44069;DHT22;29738;51.234;5.484;2022-07-23T07:48:02;19.20;99.90
44069;DHT22;29738;51.234;5.484;2022-07-23T07:50:28;19.20;99.90
44069;DHT22;29738;51.234;5.484;2022-07-23T07:52:53;19.10;99.90
44069;DHT22;29738;51.234;5.484;2022-07-23T07:55:19;19.20;99.90
44069;DHT22;29738;51.234;5.484;2022-07-23T07:57:45;19.30;99.90
44069;DHT22;29738;51.234;5.484;2022-07-23T08:00:11;19.40;99.90
44069;DHT22;29738;51.234;5.484;2022-07-23T08:02:51;19.60;99.90
44069;DHT22;29738;51.234;5.484;2022-07-23T08:05:23;19.80;99.90
44069;DHT22;29738;51.234;5.484;2022-07-23T08:07:48;20.00;99.90
44069;DHT22;29738;51.234;5.484;2022-07-23T08:10:15;20.10;99.90
44069;DHT22;29738;51.234;5.484;2022-07-23T08:12:49;20.50;99.90
44069;DHT22;29738;51.234;5.484;2022-07-23T08:15:17;20.40;99.90
44069;DHT22;29738;51.234;5.484;2022-07-23T08:17:44;20.50;99.90
44069;DHT22;29738;51.234;5.484;2022-07-23T08:20:12;20.50;99.90
44069;DHT22;29738;51.234;5.484;2022-07-23T08:22:58;20.60;99.90
44069;DHT22;29738;51.234;5.484;2022-07-23T08:25:32;20.50;99.90
44069;DHT22;29738;51.234;5.484;2022-07-23T08:28:00;20.60;99.90
44069;DHT22;29738;51.234;5.484;2022-07-23T08:30:27;21.10;99.90
44069;DHT22;29738;51.234;5.484;2022-07-23T08:35:35;21.80;99.90
44069;DHT22;29738;51.234;5.484;2022-07-23T08:38:03;21.40;99.90
44069;DHT22;29738;51.234;5.484;2022-07-23T08:40:35;21.40;99.90
44069;DHT22;29738;51.234;5.484;2022-07-23T08:43:05;21.60;99.90
44069;DHT22;29738;51.234;5.484;2022-07-23T08:45:39;21.20;99.90
44069;DHT22;29738;51.234;5.484;2022-07-23T08:48:15;20.90;99.90
44069;DHT22;29738;51.234;5.484;2022-07-23T08:50:50;20.70;99.90
44069;DHT22;29738;51.234;5.484;2022-07-23T08:53:17;20.70;99.90
44069;DHT22;29738;51.234;5.484;2022-07-23T08:55:48;20.70;99.90
44069;DHT22;29738;51.234;5.484;2022-07-23T08:58:14;20.90;99.90
44069;DHT22;29738;51.234;5.484;2022-07-23T09:00:40;20.70;99.90
44069;DHT22;29738;51.234;5.484;2022-07-23T09:03:06;21.00;99.90
44069;DHT22;29738;51.234;5.484;2022-07-23T09:05:32;21.20;99.90
44069;DHT22;29738;51.234;5.484;2022-07-23T09:08:33;21.40;99.90
44069;DHT22;29738;51.234;5.484;2022-07-23T09:11:00;21.60;99.90
44069;DHT22;29738;51.234;5.484;2022-07-23T09:16:07;22.20;99.90
44069;DHT22;29738;51.234;5.484;2022-07-23T09:18:45;22.30;99.90
44069;DHT22;29738;51.234;5.484;2022-07-23T09:21:29;22.10;99.90
44069;DHT22;29738;51.234;5.484;2022-07-23T09:26:30;21.90;99.90
44069;DHT22;29738;51.234;5.484;2022-07-23T09:29:01;21.50;99.90
44069;DHT22;29738;51.234;5.484;2022-07-23T09:36:37;21.40;99.90
44069;DHT22;29738;51.234;5.484;2022-07-23T09:39:04;21.70;99.90
44069;DHT22;29738;51.234;5.484;2022-07-23T09:41:42;22.10;99.90
44069;DHT22;29738;51.234;5.484;2022-07-23T09:44:16;22.70;99.90
44069;DHT22;29738;51.234;5.484;2022-07-23T09:46:43;23.10;99.90
44069;DHT22;29738;51.234;5.484;2022-07-23T09:49:22;23.50;99.90
44069;DHT22;29738;51.234;5.484;2022-07-23T09:51:53;23.70;99.90
44069;DHT22;29738;51.234;5.484;2022-07-23T09:56:48;24.20;99.90
44069;DHT22;29738;51.234;5.484;2022-07-23T09:59:16;24.00;99.90
44069;DHT22;29738;51.234;5.484;2022-07-23T10:01:44;24.20;99.90
44069;DHT22;29738;51.234;5.484;2022-07-23T10:04:11;23.80;99.90
44069;DHT22;29738;51.234;5.484;2022-07-23T10:06:39;23.60;99.90
44069;DHT22;29738;51.234;5.484;2022-07-23T10:09:07;23.70;99.90
44069;DHT22;29738;51.234;5.484;2022-07-23T10:11:34;23.80;99.90
44069;DHT22;29738;51.234;5.484;2022-07-23T10:14:00;23.70;99.90
44069;DHT22;29738;51.234;5.484;2022-07-23T10:16:29;24.00;99.90
44069;DHT22;29738;51.234;5.484;2022-07-23T10:18:55;24.30;99.90
44069;DHT22;29738;51.234;5.484;2022-07-23T10:24:36;24.90;99.90
44069;DHT22;29738;51.234;5.484;2022-07-23T10:30:14;25.20;99.90
44069;DHT22;29738;51.234;5.484;2022-07-23T10:35:56;24.40;99.90
44069;DHT22;29738;51.234;5.484;2022-07-23T10:38:33;24.50;99.90
44069;DHT22;29738;51.234;5.484;2022-07-23T10:41:04;24.20;99.90
44069;DHT22;29738;51.234;5.484;2022-07-23T10:43:31;23.90;99.90
44069;DHT22;29738;51.234;5.484;2022-07-23T10:46:23;23.80;99.90
44069;DHT22;29738;51.234;5.484;2022-07-23T10:49:23;23.80;99.90
44069;DHT22;29738;51.234;5.484;2022-07-23T10:54:37;24.00;99.90
44069;DHT22;29738;51.234;5.484;2022-07-23T10:57:07;24.00;99.90
44069;DHT22;29738;51.234;5.484;2022-07-23T11:02:30;23.80;99.90
44069;DHT22;29738;51.234;5.484;2022-07-23T11:05:05;23.20;99.90
44069;DHT22;29738;51.234;5.484;2022-07-23T11:07:31;23.00;99.90
44069;DHT22;29738;51.234;5.484;2022-07-23T11:09:57;23.30;99.90
44069;DHT22;29738;51.234;5.484;2022-07-23T11:17:24;24.00;99.90
44069;DHT22;29738;51.234;5.484;2022-07-23T11:22:35;24.40;99.90
44069;DHT22;29738;51.234;5.484;2022-07-23T11:25:01;24.50;99.90
44069;DHT22;29738;51.234;5.484;2022-07-23T11:27:38;24.30;99.90
44069;DHT22;29738;51.234;5.484;2022-07-23T11:30:05;23.80;99.90
44069;DHT22;29738;51.234;5.484;2022-07-23T11:32:37;23.60;99.90
44069;DHT22;29738;51.234;5.484;2022-07-23T11:35:20;23.60;99.90
44069;DHT22;29738;51.234;5.484;2022-07-23T11:37:47;23.80;99.90
44069;DHT22;29738;51.234;5.484;2022-07-23T11:40:15;24.20;99.90
44069;DHT22;29738;51.234;5.484;2022-07-23T11:42:58;24.40;99.90
44069;DHT22;29738;51.234;5.484;2022-07-23T11:45:48;24.20;99.90
44069;DHT22;29738;51.234;5.484;2022-07-23T11:48:18;24.00;99.90
44069;DHT22;29738;51.234;5.484;2022-07-23T11:50:44;24.20;99.90
44069;DHT22;29738;51.234;5.484;2022-07-23T11:53:10;24.30;99.90
44069;DHT22;29738;51.234;5.484;2022-07-23T11:55:36;24.20;99.90
44069;DHT22;29738;51.234;5.484;2022-07-23T11:58:02;24.50;99.90
44069;DHT22;29738;51.234;5.484;2022-07-23T12:00:29;24.40;99.90
44069;DHT22;29738;51.234;5.484;2022-07-23T12:02:58;24.60;99.90
44069;DHT22;29738;51.234;5.484;2022-07-23T12:05:30;24.90;99.90
44069;DHT22;29738;51.234;5.484;2022-07-23T12:07:58;24.90;99.90
44069;DHT22;29738;51.234;5.484;2022-07-23T12:10:29;24.90;99.90
44069;DHT22;29738;51.234;5.484;2022-07-23T12:13:00;25.00;99.90
44069;DHT22;29738;51.234;5.484;2022-07-23T12:17:59;24.40;99.90
44069;DHT22;29738;51.234;5.484;2022-07-23T12:20:28;24.50;99.90
44069;DHT22;29738;51.234;5.484;2022-07-23T12:23:00;24.70;99.90
44069;DHT22;29738;51.234;5.484;2022-07-23T12:25:31;24.90;99.90
44069;DHT22;29738;51.234;5.484;2022-07-23T12:28:06;24.90;99.90
44069;DHT22;29738;51.234;5.484;2022-07-23T12:30:49;24.70;99.90
44069;DHT22;29738;51.234;5.484;2022-07-23T12:33:26;24.70;99.90
44069;DHT22;29738;51.234;5.484;2022-07-23T12:35:54;25.30;99.90
44069;DHT22;29738;51.234;5.484;2022-07-23T12:38:21;25.80;99.90
44069;DHT22;29738;51.234;5.484;2022-07-23T12:40:50;26.20;99.90
44069;DHT22;29738;51.234;5.484;2022-07-23T12:43:23;26.20;99.90
44069;DHT22;29738;51.234;5.484;2022-07-23T12:48:27;26.20;99.90
44069;DHT22;29738;51.234;5.484;2022-07-23T12:51:06;25.90;99.90
44069;DHT22;29738;51.234;5.484;2022-07-23T12:53:41;26.00;99.90
44069;DHT22;29738;51.234;5.484;2022-07-23T12:56:10;26.60;99.90
44069;DHT22;29738;51.234;5.484;2022-07-23T12:58:45;26.70;99.00
44069;DHT22;29738;51.234;5.484;2022-07-23T13:01:22;26.80;99.90
44069;DHT22;29738;51.234;5.484;2022-07-23T13:04:00;27.10;97.90
44069;DHT22;29738;51.234;5.484;2022-07-23T13:06:28;27.40;98.00
44069;DHT22;29738;51.234;5.484;2022-07-23T13:08:54;27.70;96.70
44069;DHT22;29738;51.234;5.484;2022-07-23T13:11:20;27.70;97.20
44069;DHT22;29738;51.234;5.484;2022-07-23T13:13:46;28.10;97.00
44069;DHT22;29738;51.234;5.484;2022-07-23T13:16:12;28.30;96.90
44069;DHT22;29738;51.234;5.484;2022-07-23T13:18:38;28.40;95.90
44069;DHT22;29738;51.234;5.484;2022-07-23T13:21:03;28.10;96.20
44069;DHT22;29738;51.234;5.484;2022-07-23T13:23:29;27.90;95.70
44069;DHT22;29738;51.234;5.484;2022-07-23T13:25:55;27.70;95.60
44069;DHT22;29738;51.234;5.484;2022-07-23T13:28:21;27.30;97.30
44069;DHT22;29738;51.234;5.484;2022-07-23T13:30:48;27.30;96.90
44069;DHT22;29738;51.234;5.484;2022-07-23T13:33:17;27.40;97.40
44069;DHT22;29738;51.234;5.484;2022-07-23T13:35:42;27.30;96.90
44069;DHT22;29738;51.234;5.484;2022-07-23T13:38:09;27.70;96.60
44069;DHT22;29738;51.234;5.484;2022-07-23T13:40:40;28.00;96.00
44069;DHT22;29738;51.234;5.484;2022-07-23T13:43:09;28.30;95.70
44069;DHT22;29738;51.234;5.484;2022-07-23T13:45:35;28.70;96.20
44069;DHT22;29738;51.234;5.484;2022-07-23T13:48:01;28.60;95.60
44069;DHT22;29738;51.234;5.484;2022-07-23T13:50:27;28.00;96.20
44069;DHT22;29738;51.234;5.484;2022-07-23T13:52:53;28.10;96.00
44069;DHT22;29738;51.234;5.484;2022-07-23T13:55:19;28.20;95.10
44069;DHT22;29738;51.234;5.484;2022-07-23T13:57:45;27.40;96.30
44069;DHT22;29738;51.234;5.484;2022-07-23T14:00:11;26.90;96.10
44069;DHT22;29738;51.234;5.484;2022-07-23T14:02:39;27.30;95.60
44069;DHT22;29738;51.234;5.484;2022-07-23T14:05:06;27.90;96.10
44069;DHT22;29738;51.234;5.484;2022-07-23T14:07:33;27.80;96.40
44069;DHT22;29738;51.234;5.484;2022-07-23T14:09:59;27.20;95.80
44069;DHT22;29738;51.234;5.484;2022-07-23T14:12:25;26.90;96.10
44069;DHT22;29738;51.234;5.484;2022-07-23T14:14:51;27.80;95.80
44069;DHT22;29738;51.234;5.484;2022-07-23T14:17:17;28.30;95.20
44069;DHT22;29738;51.234;5.484;2022-07-23T14:19:43;28.70;94.50
44069;DHT22;29738;51.234;5.484;2022-07-23T14:22:08;28.80;94.00
44069;DHT22;29738;51.234;5.484;2022-07-23T14:24:34;27.50;95.50
44069;DHT22;29738;51.234;5.484;2022-07-23T14:27:01;27.50;95.50
44069;DHT22;29738;51.234;5.484;2022-07-23T14:29:27;27.30;96.00
44069;DHT22;29738;51.234;5.484;2022-07-23T14:31:53;27.60;95.60
44069;DHT22;29738;51.234;5.484;2022-07-23T14:34:19;27.90;94.90
44069;DHT22;29738;51.234;5.484;2022-07-23T14:36:45;28.00;95.80
44069;DHT22;29738;51.234;5.484;2022-07-23T14:39:11;28.40;94.80
44069;DHT22;29738;51.234;5.484;2022-07-23T14:41:38;28.60;94.70
44069;DHT22;29738;51.234;5.484;2022-07-23T14:44:04;28.60;94.70
44069;DHT22;29738;51.234;5.484;2022-07-23T14:46:30;28.40;95.80
44069;DHT22;29738;51.234;5.484;2022-07-23T14:48:56;28.00;95.20
44069;DHT22;29738;51.234;5.484;2022-07-23T14:51:22;28.30;94.80
44069;DHT22;29738;51.234;5.484;2022-07-23T14:53:48;28.60;94.80
44069;DHT22;29738;51.234;5.484;2022-07-23T14:56:14;28.60;94.10
44069;DHT22;29738;51.234;5.484;2022-07-23T14:58:41;28.50;95.10
44069;DHT22;29738;51.234;5.484;2022-07-23T15:01:07;28.50;94.70
44069;DHT22;29738;51.234;5.484;2022-07-23T15:03:33;28.50;94.40
44069;DHT22;29738;51.234;5.484;2022-07-23T15:05:59;28.00;95.10
44069;DHT22;29738;51.234;5.484;2022-07-23T15:08:25;28.30;95.80
44069;DHT22;29738;51.234;5.484;2022-07-23T15:10:51;28.40;94.60
44069;DHT22;29738;51.234;5.484;2022-07-23T15:13:17;27.90;95.40
44069;DHT22;29738;51.234;5.484;2022-07-23T15:15:43;28.00;95.20
44069;DHT22;29738;51.234;5.484;2022-07-23T15:18:10;27.70;94.70
44069;DHT22;29738;51.234;5.484;2022-07-23T15:20:36;27.80;94.50
44069;DHT22;29738;51.234;5.484;2022-07-23T15:23:04;27.90;94.40
44069;DHT22;29738;51.234;5.484;2022-07-23T15:25:30;28.20;94.90
44069;DHT22;29738;51.234;5.484;2022-07-23T15:27:57;27.90;94.50
44069;DHT22;29738;51.234;5.484;2022-07-23T15:30:24;27.90;95.20
44069;DHT22;29738;51.234;5.484;2022-07-23T15:32:50;27.70;94.70
44069;DHT22;29738;51.234;5.484;2022-07-23T15:35:16;27.60;94.60
44069;DHT22;29738;51.234;5.484;2022-07-23T15:37:42;27.50;94.50
44069;DHT22;29738;51.234;5.484;2022-07-23T15:40:08;27.50;94.30
44069;DHT22;29738;51.234;5.484;2022-07-23T15:42:35;27.70;94.10
44069;DHT22;29738;51.234;5.484;2022-07-23T15:45:02;27.90;94.10
44069;DHT22;29738;51.234;5.484;2022-07-23T15:47:27;28.10;94.30
44069;DHT22;29738;51.234;5.484;2022-07-23T15:49:53;28.50;93.90
44069;DHT22;29738;51.234;5.484;2022-07-23T15:52:19;29.00;94.10
44069;DHT22;29738;51.234;5.484;2022-07-23T15:54:45;28.80;94.50
44069;DHT22;29738;51.234;5.484;2022-07-23T15:57:10;28.80;94.20
44069;DHT22;29738;51.234;5.484;2022-07-23T15:59:37;28.90;94.00
44069;DHT22;29738;51.234;5.484;2022-07-23T16:02:03;29.30;94.00
44069;DHT22;29738;51.234;5.484;2022-07-23T16:04:29;29.20;93.10
44069;DHT22;29738;51.234;5.484;2022-07-23T16:06:55;29.60;92.70
44069;DHT22;29738;51.234;5.484;2022-07-23T16:09:21;29.80;92.80
44069;DHT22;29738;51.234;5.484;2022-07-23T16:11:47;29.70;91.90
44069;DHT22;29738;51.234;5.484;2022-07-23T16:14:13;29.70;91.80